Meteorología y climatología de Navarra
Datos de la estación - Meteo Navarra

Estación de Iñarbegi GN

Altitud 585 m.


Datos desde el 16/09/2020 hasta el 17/09/2020 en horario solar
Los datos son PROVISIONALES

Anterior Página 1 de 1 Siguiente Descargar: Formato para Excel 2000 o superior   Formato csv   Formato para OpenOffice Calc
Fecha Temperatura Humedad relativa Radiación global Insolación Precipitación Vel. viento 10 m Vel. viento 10 m Dir. viento 10 m
ºC % W/m² s l/m² m/s km/h º
16/09/2020 0:00 17.0 81 - - - - 0.0 - - - - - -
16/09/2020 0:10 17.2 81 - - - - 0.0 - - - - - -
16/09/2020 0:20 17.8 78 - - - - 0.0 - - - - - -
16/09/2020 0:30 17.7 78 - - - - 0.0 - - - - - -
16/09/2020 0:40 17.2 80 - - - - 0.0 - - - - - -
16/09/2020 0:50 16.8 82 - - - - 0.0 - - - - - -
16/09/2020 1:00 17.2 80 - - - - 0.0 - - - - - -
16/09/2020 1:10 17.3 79 - - - - 0.0 - - - - - -
16/09/2020 1:20 17.5 78 - - - - 0.0 - - - - - -
16/09/2020 1:30 17.7 77 - - - - 0.0 - - - - - -
16/09/2020 1:40 17.3 78 - - - - 0.0 - - - - - -
16/09/2020 1:50 17.6 77 - - - - 0.0 - - - - - -
16/09/2020 2:00 17.8 75 - - - - 0.0 - - - - - -
16/09/2020 2:10 17.2 78 - - - - 0.0 - - - - - -
16/09/2020 2:20 17.4 77 - - - - 0.0 - - - - - -
16/09/2020 2:30 17.8 74 - - - - 0.0 - - - - - -
16/09/2020 2:40 17.8 74 - - - - 0.0 - - - - - -
16/09/2020 2:50 18.0 72 - - - - 0.0 - - - - - -
16/09/2020 3:00 18.2 72 - - - - 0.0 - - - - - -
16/09/2020 3:10 18.1 72 - - - - 0.0 - - - - - -
16/09/2020 3:20 18.0 72 - - - - 0.0 - - - - - -
16/09/2020 3:30 18.0 72 - - - - 0.0 - - - - - -
16/09/2020 3:40 17.9 72 - - - - 0.0 - - - - - -
16/09/2020 3:50 17.9 71 - - - - 0.0 - - - - - -
16/09/2020 4:00 18.2 70 - - - - 0.0 - - - - - -
16/09/2020 4:10 17.9 72 - - - - 0.0 - - - - - -
16/09/2020 4:20 17.8 72 - - - - 0.0 - - - - - -
16/09/2020 4:30 18.1 70 - - - - 0.0 - - - - - -
16/09/2020 4:40 18.3 70 - - - - 0.0 - - - - - -
16/09/2020 4:50 18.5 69 - - - - 0.0 - - - - - -
16/09/2020 5:00 18.2 70 - - - - 0.0 - - - - - -
16/09/2020 5:10 18.1 71 - - - - 0.0 - - - - - -
16/09/2020 5:20 18.2 71 - - - - 0.0 - - - - - -
16/09/2020 5:30 17.8 72 - - - - 0.0 - - - - - -
16/09/2020 5:40 17.8 72 - - - - 0.0 - - - - - -
16/09/2020 5:50 17.6 74 - - - - 0.0 - - - - - -
16/09/2020 6:00 18.1 71 - - - - 0.0 - - - - - -
16/09/2020 6:10 18.2 71 - - - - 0.0 - - - - - -
16/09/2020 6:20 18.6 69 - - - - 0.0 - - - - - -
16/09/2020 6:30 19.0 68 - - - - 0.0 - - - - - -
16/09/2020 6:40 18.9 69 - - - - 0.0 - - - - - -
16/09/2020 6:50 19.3 68 - - - - 0.0 - - - - - -
16/09/2020 7:00 19.5 69 - - - - 0.0 - - - - - -
16/09/2020 7:10 20.3 67 - - - - 0.0 - - - - - -
16/09/2020 7:20 20.9 65 - - - - 0.0 - - - - - -
16/09/2020 7:30 21.1 66 - - - - 0.0 - - - - - -
16/09/2020 7:40 22.1 67 - - - - 0.0 - - - - - -
16/09/2020 7:50 22.2 70 - - - - 0.0 - - - - - -
16/09/2020 8:00 22.6 66 - - - - 0.0 - - - - - -
16/09/2020 8:10 23.2 61 - - - - 0.0 - - - - - -
16/09/2020 8:20 23.6 60 - - - - 0.0 - - - - - -
16/09/2020 8:30 23.9 64 - - - - 0.0 - - - - - -
16/09/2020 8:40 23.9 62 - - - - 0.0 - - - - - -
16/09/2020 8:50 24.0 55 - - - - 0.0 - - - - - -
16/09/2020 9:00 25.0 56 - - - - 0.0 - - - - - -
16/09/2020 9:10 25.6 57 - - - - 0.0 - - - - - -
16/09/2020 9:20 24.8 61 - - - - 0.0 - - - - - -
16/09/2020 9:30 24.5 62 - - - - 0.0 - - - - - -
16/09/2020 9:40 24.6 64 - - - - 0.0 - - - - - -
16/09/2020 9:50 24.6 65 - - - - 0.0 - - - - - -
16/09/2020 10:00 25.6 63 - - - - 0.0 - - - - - -
16/09/2020 10:10 26.4 60 - - - - 0.0 - - - - - -
16/09/2020 10:20 26.9 57 - - - - 0.0 - - - - - -
16/09/2020 10:30 26.7 57 - - - - 0.0 - - - - - -
16/09/2020 10:40 26.4 58 - - - - 0.0 - - - - - -
16/09/2020 10:50 26.7 57 - - - - 0.0 - - - - - -
16/09/2020 11:00 27.1 55 - - - - 0.0 - - - - - -
16/09/2020 11:10 27.6 49 - - - - 0.0 - - - - - -
16/09/2020 11:20 27.7 48 - - - - 0.0 - - - - - -
16/09/2020 11:30 28.1 48 - - - - 0.0 - - - - - -
16/09/2020 11:40 28.4 48 - - - - 0.0 - - - - - -
16/09/2020 11:50 28.6 48 - - - - 0.0 - - - - - -
16/09/2020 12:00 28.7 47 - - - - 0.0 - - - - - -
16/09/2020 12:10 29.2 45 - - - - 0.0 - - - - - -
16/09/2020 12:20 28.9 41 - - - - 0.0 - - - - - -
16/09/2020 12:30 29.1 41 - - - - 0.0 - - - - - -
16/09/2020 12:40 29.8 37 - - - - 0.0 - - - - - -
16/09/2020 12:50 29.9 38 - - - - 0.0 - - - - - -
16/09/2020 13:00 29.6 39 - - - - 0.0 - - - - - -
16/09/2020 13:10 29.2 40 - - - - 0.0 - - - - - -
16/09/2020 13:20 29.3 39 - - - - 0.0 - - - - - -
16/09/2020 13:30 28.9 40 - - - - 0.0 - - - - - -
16/09/2020 13:40 28.8 42 - - - - 0.0 - - - - - -
16/09/2020 13:50 28.7 42 - - - - 0.0 - - - - - -
16/09/2020 14:00 29.0 42 - - - - 0.0 - - - - - -
16/09/2020 14:10 28.9 43 - - - - 0.0 - - - - - -
16/09/2020 14:20 29.0 42 - - - - 0.0 - - - - - -
16/09/2020 14:30 29.1 43 - - - - 0.0 - - - - - -
16/09/2020 14:40 28.9 43 - - - - 0.0 - - - - - -
16/09/2020 14:50 29.3 43 - - - - 0.0 - - - - - -
16/09/2020 15:00 29.1 44 - - - - 0.0 - - - - - -
16/09/2020 15:10 29.6 42 - - - - 0.0 - - - - - -
16/09/2020 15:20 29.6 43 - - - - 0.0 - - - - - -
16/09/2020 15:30 29.3 43 - - - - 0.0 - - - - - -
16/09/2020 15:40 29.1 45 - - - - 0.0 - - - - - -
16/09/2020 15:50 28.4 45 - - - - 0.0 - - - - - -
16/09/2020 16:00 27.5 47 - - - - 0.0 - - - - - -
16/09/2020 16:10 27.2 47 - - - - 0.0 - - - - - -
16/09/2020 16:20 27.6 46 - - - - 0.0 - - - - - -
16/09/2020 16:30 27.9 45 - - - - 0.0 - - - - - -
16/09/2020 16:40 27.5 46 - - - - 0.0 - - - - - -
16/09/2020 16:50 27.0 46 - - - - 0.0 - - - - - -
16/09/2020 17:00 26.7 46 - - - - 0.0 - - - - - -
16/09/2020 17:10 26.4 45 - - - - 0.0 - - - - - -
16/09/2020 17:20 26.2 46 - - - - 0.0 - - - - - -
16/09/2020 17:30 26.0 46 - - - - 0.0 - - - - - -
16/09/2020 17:40 26.0 45 - - - - 0.0 - - - - - -
16/09/2020 17:50 25.9 44 - - - - 0.0 - - - - - -
16/09/2020 18:00 25.7 45 - - - - 0.0 - - - - - -
16/09/2020 18:10 25.6 45 - - - - 0.0 - - - - - -
16/09/2020 18:20 25.5 45 - - - - 0.0 - - - - - -
16/09/2020 18:30 25.3 45 - - - - 0.0 - - - - - -
16/09/2020 18:40 24.9 46 - - - - 0.0 - - - - - -
16/09/2020 18:50 24.9 46 - - - - 0.0 - - - - - -
16/09/2020 19:00 25.0 46 - - - - 0.0 - - - - - -
16/09/2020 19:10 24.9 46 - - - - 0.0 - - - - - -
16/09/2020 19:20 24.7 47 - - - - 0.0 - - - - - -
16/09/2020 19:30 24.4 48 - - - - 0.0 - - - - - -
16/09/2020 19:40 24.6 47 - - - - 0.0 - - - - - -
16/09/2020 19:50 24.5 47 - - - - 0.0 - - - - - -
16/09/2020 20:00 24.5 47 - - - - 0.0 - - - - - -
16/09/2020 20:10 24.6 47 - - - - 0.0 - - - - - -
16/09/2020 20:20 24.4 47 - - - - 0.0 - - - - - -
16/09/2020 20:30 24.6 46 - - - - 0.0 - - - - - -
16/09/2020 20:40 24.2 47 - - - - 0.0 - - - - - -
16/09/2020 20:50 24.2 47 - - - - 0.0 - - - - - -
16/09/2020 21:00 24.0 48 - - - - 0.0 - - - - - -
16/09/2020 21:10 24.2 48 - - - - 0.0 - - - - - -
16/09/2020 21:20 24.0 48 - - - - 0.0 - - - - - -
16/09/2020 21:30 24.0 48 - - - - 0.0 - - - - - -
16/09/2020 21:40 23.9 48 - - - - 0.0 - - - - - -
16/09/2020 21:50 23.8 49 - - - - 0.0 - - - - - -
16/09/2020 22:00 24.0 48 - - - - 0.0 - - - - - -
16/09/2020 22:10 24.5 46 - - - - 0.0 - - - - - -
16/09/2020 22:20 24.0 48 - - - - 0.0 - - - - - -
16/09/2020 22:30 24.1 47 - - - - 0.0 - - - - - -
16/09/2020 22:40 24.0 47 - - - - 0.0 - - - - - -
16/09/2020 22:50 24.1 47 - - - - 0.0 - - - - - -
16/09/2020 23:00 24.2 46 - - - - 0.0 - - - - - -
16/09/2020 23:10 24.2 46 - - - - 0.0 - - - - - -
16/09/2020 23:20 23.9 47 - - - - 0.0 - - - - - -
16/09/2020 23:30 23.8 48 - - - - 0.0 - - - - - -
16/09/2020 23:40 23.5 49 - - - - 0.0 - - - - - -
16/09/2020 23:50 23.2 50 - - - - 0.0 - - - - - -
Anterior Página 1 de 1 Siguiente

NOTA: Tipo de datos según el color:
   - Valores diarios o 10 minutos correctos
   - Valores diarios calculados a partir de un número de datos 10 minutos menor que 144 y mayor que 120, o de un número de datos semihorarios menor que 48 y mayor que 40 (caso de las estaciones de INTIA y del Ministerio)
   - Valores diez minutos estimados


Contacto        Enlaces        Aviso legal